createdAt,value
2019-03-11T00:00:59.454Z,30.40
2019-03-11T00:01:59.436Z,31.30
2019-03-11T00:02:59.408Z,30.00
2019-03-11T00:03:59.386Z,31.00
2019-03-11T00:04:59.370Z,30.80
2019-03-11T00:05:59.335Z,30.00
2019-03-11T00:06:59.323Z,30.30
2019-03-11T00:07:59.293Z,30.90
2019-03-11T00:08:59.271Z,32.90
2019-03-11T00:09:59.256Z,31.80
2019-03-11T00:10:59.225Z,30.10
2019-03-11T00:11:59.197Z,30.40
2019-03-11T00:12:59.179Z,30.10
2019-03-11T00:13:59.159Z,29.50
2019-03-11T00:14:59.132Z,28.00
2019-03-11T00:15:59.107Z,28.40
2019-03-11T00:16:59.082Z,28.00
2019-03-11T00:17:59.059Z,25.90
2019-03-11T00:18:59.041Z,27.60
2019-03-11T00:19:59.015Z,27.70
2019-03-11T00:20:58.990Z,24.80
2019-03-11T00:21:58.969Z,27.00
2019-03-11T00:22:58.942Z,26.70
2019-03-11T00:23:58.929Z,27.70
2019-03-11T00:24:58.899Z,27.10
2019-03-11T00:25:58.874Z,25.60
2019-03-11T00:26:58.854Z,26.00
2019-03-11T00:27:58.827Z,26.70
2019-03-11T00:28:58.803Z,26.90
2019-03-11T00:29:58.784Z,27.90
2019-03-11T00:30:58.758Z,26.90
2019-03-11T00:31:58.738Z,26.80
2019-03-11T00:32:58.708Z,26.70
2019-03-11T00:33:58.687Z,26.00
2019-03-11T00:34:58.663Z,27.70
2019-03-11T00:35:58.640Z,27.10
2019-03-11T00:36:58.622Z,27.90
2019-03-11T00:37:58.607Z,26.10
2019-03-11T00:38:58.571Z,27.10
2019-03-11T00:39:58.546Z,26.80
2019-03-11T00:40:58.525Z,27.90
2019-03-11T00:41:58.497Z,26.20
2019-03-11T00:42:58.475Z,28.10
2019-03-11T00:43:58.454Z,27.20
2019-03-11T00:44:58.430Z,26.10
2019-03-11T00:45:58.401Z,27.50
2019-03-11T00:46:58.383Z,25.30
2019-03-11T00:48:02.387Z,26.50
2019-03-11T00:48:58.335Z,25.50
2019-03-11T00:49:58.320Z,26.00
2019-03-11T00:50:58.286Z,24.90
2019-03-11T00:51:58.267Z,25.40
2019-03-11T00:52:58.241Z,26.30
2019-03-11T00:53:58.225Z,24.80
2019-03-11T00:54:58.200Z,25.20
2019-03-11T00:55:58.237Z,26.30
2019-03-11T00:56:58.149Z,24.80
2019-03-11T00:57:58.125Z,24.50
2019-03-11T00:58:58.110Z,25.60
2019-03-11T00:59:58.079Z,26.60
2019-03-11T01:00:58.063Z,26.60
2019-03-11T01:01:58.029Z,25.70
2019-03-11T01:02:58.013Z,26.40
2019-03-11T01:03:57.983Z,25.40
2019-03-11T01:04:57.962Z,26.30
2019-03-11T01:05:57.941Z,25.30
2019-03-11T01:06:57.909Z,25.50
2019-03-11T01:07:57.895Z,25.10
2019-03-11T01:08:57.867Z,25.10
2019-03-11T01:09:57.847Z,25.90
2019-03-11T01:10:57.819Z,26.20
2019-03-11T01:11:57.797Z,25.80
2019-03-11T01:12:57.773Z,25.50
2019-03-11T01:13:57.751Z,25.30
2019-03-11T01:14:57.727Z,26.40
2019-03-11T01:15:57.707Z,25.00
2019-03-11T01:16:57.681Z,25.50
2019-03-11T01:17:57.659Z,24.60
2019-03-11T01:18:57.639Z,25.50
2019-03-11T01:19:57.608Z,25.40
2019-03-11T01:20:57.591Z,27.00
2019-03-11T01:21:57.565Z,25.70
2019-03-11T01:22:57.539Z,25.30
2019-03-11T01:23:57.515Z,25.50
2019-03-11T01:24:57.501Z,26.40
2019-03-11T01:25:57.471Z,26.00
2019-03-11T01:26:57.444Z,26.80
2019-03-11T01:27:57.427Z,25.90
2019-03-11T01:28:57.407Z,25.40
2019-03-11T01:29:57.380Z,26.40
2019-03-11T01:30:57.359Z,26.00
2019-03-11T01:31:57.331Z,25.00
2019-03-11T01:32:57.305Z,24.70
2019-03-11T01:33:57.284Z,25.00
2019-03-11T01:34:57.264Z,24.50
2019-03-11T01:35:57.233Z,24.40
2019-03-11T01:36:57.215Z,24.90
2019-03-11T01:37:57.191Z,25.70
2019-03-11T01:38:57.166Z,24.40
2019-03-11T01:39:57.143Z,24.40
2019-03-11T01:40:57.122Z,24.90
2019-03-11T01:41:57.097Z,24.80
2019-03-11T01:42:57.071Z,24.30
2019-03-11T01:43:57.049Z,24.00
2019-03-11T01:44:57.027Z,25.10
2019-03-11T01:45:56.998Z,25.20
2019-03-11T01:46:56.977Z,23.80
2019-03-11T01:47:56.953Z,24.50
2019-03-11T01:48:56.932Z,24.50
2019-03-11T01:49:56.909Z,24.60
2019-03-11T01:50:56.887Z,24.70
2019-03-11T01:51:56.862Z,24.50
2019-03-11T01:52:56.837Z,26.00
2019-03-11T01:53:56.814Z,25.50
2019-03-11T01:54:56.788Z,25.30
2019-03-11T01:55:56.764Z,24.60
2019-03-11T01:56:56.746Z,24.10
2019-03-11T01:57:56.718Z,24.70
2019-03-11T01:58:56.696Z,24.40
2019-03-11T01:59:56.672Z,24.90
2019-03-11T02:00:56.653Z,24.40
2019-03-11T02:01:56.626Z,24.60
2019-03-11T02:02:56.604Z,25.00
2019-03-11T02:03:56.581Z,25.30
2019-03-11T02:04:56.560Z,25.10
2019-03-11T02:05:56.536Z,24.70
2019-03-11T02:06:56.510Z,26.40
2019-03-11T02:07:56.484Z,25.40
2019-03-11T02:08:56.460Z,24.20
2019-03-11T02:09:56.441Z,23.90
2019-03-11T02:10:56.418Z,25.00
2019-03-11T02:11:56.396Z,24.70
2019-03-11T02:12:56.370Z,24.70
2019-03-11T02:13:56.346Z,24.30
2019-03-11T02:14:56.324Z,24.20
2019-03-11T02:15:56.297Z,25.20
2019-03-11T02:16:56.274Z,24.60
2019-03-11T02:17:56.254Z,25.70
2019-03-11T02:18:56.233Z,24.70
2019-03-11T02:19:56.208Z,25.60
2019-03-11T02:20:56.184Z,23.20
2019-03-11T02:21:56.156Z,23.40
2019-03-11T02:22:56.136Z,23.40
2019-03-11T02:23:56.114Z,22.90
2019-03-11T02:24:56.086Z,23.90
2019-03-11T02:25:56.064Z,21.70
2019-03-11T02:26:56.042Z,21.90
2019-03-11T02:27:56.023Z,22.60
2019-03-11T02:28:55.998Z,21.90
2019-03-11T02:29:55.972Z,22.60
2019-03-11T02:30:55.947Z,22.90
2019-03-11T02:31:55.923Z,22.40
2019-03-11T02:32:55.900Z,22.80
2019-03-11T02:33:55.874Z,21.70
2019-03-11T02:34:55.855Z,21.10
2019-03-11T02:35:55.834Z,21.70
2019-03-11T02:36:55.811Z,21.40
2019-03-11T02:37:55.782Z,20.90
2019-03-11T02:38:55.758Z,21.70
2019-03-11T02:39:55.883Z,20.60
2019-03-11T02:40:55.715Z,21.50
2019-03-11T02:41:55.695Z,21.20
2019-03-11T02:42:55.669Z,21.50
2019-03-11T02:43:55.643Z,20.90
2019-03-11T02:44:55.624Z,21.50
2019-03-11T02:45:55.595Z,21.10
2019-03-11T02:46:55.578Z,21.30
2019-03-11T02:47:55.553Z,21.60
2019-03-11T02:48:55.527Z,21.60
2019-03-11T02:49:55.503Z,22.20
2019-03-11T02:50:55.482Z,21.90
2019-03-11T02:51:55.457Z,22.10
2019-03-11T02:52:55.438Z,22.10
2019-03-11T02:53:55.413Z,22.10
2019-03-11T02:54:55.386Z,22.10
2019-03-11T02:55:55.360Z,21.10
2019-03-11T02:56:55.338Z,21.40
2019-03-11T02:57:55.319Z,20.50
2019-03-11T02:58:55.293Z,20.80
2019-03-11T02:59:55.270Z,20.20
2019-03-11T03:00:55.247Z,20.80
2019-03-11T03:01:55.224Z,19.70
2019-03-11T03:02:55.200Z,20.60
2019-03-11T03:03:55.179Z,20.10
2019-03-11T03:04:55.156Z,19.80
2019-03-11T03:05:55.131Z,19.50
2019-03-11T03:06:55.119Z,20.60
2019-03-11T03:07:55.087Z,20.20
2019-03-11T03:08:55.055Z,19.80
2019-03-11T03:09:55.035Z,19.50
2019-03-11T03:10:55.014Z,20.30
2019-03-11T03:11:54.993Z,20.30
2019-03-11T03:12:54.983Z,21.00
2019-03-11T03:13:54.944Z,19.80
2019-03-11T03:14:54.922Z,19.90
2019-03-11T03:15:54.895Z,20.20
2019-03-11T03:16:54.872Z,21.10
2019-03-11T03:17:54.847Z,21.30
2019-03-11T03:18:54.829Z,22.30
2019-03-11T03:19:54.802Z,22.60
2019-03-11T03:20:54.776Z,23.00
2019-03-11T03:21:54.760Z,21.70
2019-03-11T03:22:54.732Z,22.70
2019-03-11T03:23:54.709Z,23.00
2019-03-11T03:24:54.686Z,24.70
2019-03-11T03:25:54.666Z,24.70
2019-03-11T03:26:54.638Z,24.60
2019-03-11T03:27:54.762Z,25.60
2019-03-11T03:28:54.592Z,23.90
2019-03-11T03:29:54.591Z,25.00
2019-03-11T03:30:54.544Z,24.70
2019-03-11T03:31:54.572Z,26.00
2019-03-11T03:32:54.496Z,25.60
2019-03-11T03:33:54.476Z,25.30
2019-03-11T03:34:54.453Z,24.90
2019-03-11T03:35:54.426Z,25.90
2019-03-11T03:36:54.404Z,24.50
2019-03-11T03:37:54.391Z,23.60
2019-03-11T03:38:54.354Z,25.00
2019-03-11T03:39:54.332Z,25.00
2019-03-11T03:40:54.312Z,25.30
2019-03-11T03:41:54.294Z,26.00
2019-03-11T03:42:54.348Z,25.40
2019-03-11T03:43:54.241Z,25.50
2019-03-11T03:44:54.215Z,27.40
2019-03-11T03:45:54.196Z,27.20
2019-03-11T03:46:54.166Z,28.20
2019-03-11T03:47:54.144Z,31.10
2019-03-11T03:48:54.124Z,30.90
2019-03-11T03:49:54.097Z,29.70
2019-03-11T03:50:54.083Z,31.90
2019-03-11T03:51:54.047Z,34.10
2019-03-11T03:52:54.023Z,32.90
2019-03-11T03:53:54.003Z,33.60
2019-03-11T03:54:53.980Z,32.50
2019-03-11T03:55:53.957Z,34.40
2019-03-11T03:56:54.420Z,33.30
2019-03-11T03:57:53.912Z,33.10
2019-03-11T03:58:53.884Z,34.30
2019-03-11T03:59:53.860Z,33.00
2019-03-11T04:00:53.839Z,33.80
2019-03-11T04:01:53.827Z,34.30
2019-03-11T04:02:53.791Z,32.80
2019-03-11T04:03:53.768Z,32.20
2019-03-11T04:04:53.747Z,33.30
2019-03-11T04:05:53.725Z,32.10
2019-03-11T04:06:53.694Z,31.50
2019-03-11T04:07:53.684Z,30.50
2019-03-11T04:08:53.649Z,30.70
2019-03-11T04:09:53.629Z,29.00
2019-03-11T04:10:53.604Z,30.00
2019-03-11T04:11:53.575Z,30.90
2019-03-11T04:12:53.559Z,28.80
2019-03-11T04:13:53.545Z,30.80
2019-03-11T04:14:53.506Z,30.60
2019-03-11T04:15:53.485Z,28.40
2019-03-11T04:16:53.466Z,31.10
2019-03-11T04:17:53.435Z,29.70
2019-03-11T04:18:53.417Z,30.80
2019-03-11T04:19:53.392Z,31.70
2019-03-11T04:20:53.374Z,30.90
2019-03-11T04:21:53.345Z,32.40
2019-03-11T04:22:53.323Z,30.40
2019-03-11T04:23:53.293Z,30.10
2019-03-11T04:24:53.272Z,31.60
2019-03-11T04:25:53.252Z,30.20
2019-03-11T04:26:53.229Z,32.40
2019-03-11T04:27:53.205Z,32.60
2019-03-11T04:28:53.176Z,35.00
2019-03-11T04:29:53.154Z,33.20
2019-03-11T04:30:53.126Z,32.20
2019-03-11T04:31:53.110Z,33.20
2019-03-11T04:32:53.086Z,34.80
2019-03-11T04:33:53.058Z,35.20
2019-03-11T04:34:53.043Z,34.60
2019-03-11T04:35:53.012Z,37.20
2019-03-11T04:36:52.992Z,35.40
2019-03-11T04:37:52.966Z,33.90
2019-03-11T04:38:52.944Z,33.10
2019-03-11T04:39:52.917Z,34.20
2019-03-11T04:40:52.897Z,32.40
2019-03-11T04:41:52.897Z,32.10
2019-03-11T04:42:52.846Z,41.00
2019-03-11T04:43:52.822Z,40.30
2019-03-11T04:44:52.801Z,41.60
2019-03-11T04:45:52.780Z,42.80
2019-03-11T04:46:52.754Z,42.40
2019-03-11T04:47:52.733Z,42.10
2019-03-11T04:48:52.706Z,40.50
2019-03-11T04:49:52.684Z,40.60
2019-03-11T04:50:52.656Z,40.30
2019-03-11T04:51:52.635Z,40.50
2019-03-11T04:52:52.611Z,40.30
2019-03-11T04:53:52.592Z,40.70
2019-03-11T04:54:52.562Z,40.30
2019-03-11T04:55:52.541Z,40.70
2019-03-11T04:56:52.570Z,39.50
2019-03-11T04:57:52.501Z,42.60
2019-03-11T04:58:52.472Z,39.70
2019-03-11T04:59:52.455Z,38.20
2019-03-11T05:00:52.424Z,38.50
2019-03-11T05:01:52.398Z,37.40
2019-03-11T05:02:52.380Z,37.80
2019-03-11T05:03:52.351Z,36.80
2019-03-11T05:04:52.331Z,39.10
2019-03-11T05:05:52.305Z,38.90
2019-03-11T05:06:52.284Z,40.10
2019-03-11T05:07:52.259Z,39.20
2019-03-11T05:08:52.234Z,40.50
2019-03-11T05:09:52.216Z,41.50
2019-03-11T05:10:52.188Z,42.90
2019-03-11T05:11:52.164Z,40.00
2019-03-11T05:12:52.169Z,37.80
2019-03-11T05:13:52.116Z,40.60
2019-03-11T05:14:52.094Z,39.80
2019-03-11T05:15:52.069Z,40.90
2019-03-11T05:16:52.046Z,36.70
2019-03-11T05:17:52.019Z,37.40
2019-03-11T05:18:51.999Z,36.00
2019-03-11T05:19:51.975Z,38.30
2019-03-11T05:20:51.950Z,38.00
2019-03-11T05:21:52.001Z,37.20
2019-03-11T05:22:51.906Z,37.50
2019-03-11T05:23:51.882Z,37.50
2019-03-11T05:24:51.857Z,39.30
2019-03-11T05:25:51.833Z,39.20
2019-03-11T05:26:51.809Z,41.60
2019-03-11T05:27:51.787Z,38.10
2019-03-11T05:28:51.763Z,39.10
2019-03-11T05:29:51.741Z,40.00
2019-03-11T05:30:51.717Z,38.20
2019-03-11T05:31:51.687Z,40.80
2019-03-11T05:32:51.666Z,38.60
2019-03-11T05:33:51.647Z,37.90
2019-03-11T05:35:18.101Z,37.60
2019-03-11T05:36:17.672Z,38.20
2019-03-11T05:37:17.647Z,38.00
2019-03-11T05:38:17.624Z,40.10
2019-03-11T05:39:17.607Z,38.80
2019-03-11T05:40:17.577Z,41.00
2019-03-11T05:41:17.557Z,43.20
2019-03-11T05:42:17.533Z,43.50
2019-03-11T05:43:17.507Z,43.60
2019-03-11T05:44:17.483Z,44.50
2019-03-11T05:45:17.460Z,46.60
2019-03-11T05:46:17.445Z,47.00
2019-03-11T05:47:17.417Z,45.20
2019-03-11T05:48:17.398Z,45.30
2019-03-11T05:49:17.365Z,45.90
2019-03-11T05:50:17.345Z,47.10
2019-03-11T05:51:17.315Z,44.40
2019-03-11T05:52:17.297Z,42.20
2019-03-11T05:53:17.272Z,43.30
2019-03-11T05:54:17.245Z,44.10
2019-03-11T05:55:17.224Z,44.50
2019-03-11T05:56:17.207Z,43.00
2019-03-11T05:57:17.175Z,43.40
2019-03-11T05:58:17.156Z,42.70
2019-03-11T05:59:17.130Z,43.20
2019-03-11T06:00:17.107Z,43.70
2019-03-11T06:01:17.081Z,43.80
2019-03-11T06:02:17.057Z,44.60
2019-03-11T06:03:17.033Z,41.10
2019-03-11T06:04:17.012Z,44.10
2019-03-11T06:05:16.986Z,41.00
2019-03-11T06:06:16.962Z,41.70
2019-03-11T06:07:16.941Z,41.60
2019-03-11T06:08:16.916Z,41.90
2019-03-11T06:09:16.893Z,43.30
2019-03-11T06:10:16.871Z,47.70
2019-03-11T06:11:16.866Z,45.20
2019-03-11T06:12:16.821Z,49.00
2019-03-11T06:13:16.799Z,49.70
2019-03-11T06:14:16.774Z,45.40
2019-03-11T06:15:16.749Z,43.40
2019-03-11T06:16:16.728Z,39.90
2019-03-11T06:17:16.703Z,41.00
2019-03-11T06:18:16.687Z,40.20
2019-03-11T06:19:16.658Z,40.60
2019-03-11T06:20:16.631Z,40.90
2019-03-11T06:21:16.607Z,41.30
2019-03-11T06:22:16.586Z,42.50
2019-03-11T06:23:16.572Z,45.10
2019-03-11T06:24:16.541Z,41.00
2019-03-11T06:25:16.516Z,40.60
2019-03-11T06:26:16.491Z,40.40
2019-03-11T06:27:16.473Z,40.50
2019-03-11T06:28:16.444Z,42.70
2019-03-11T06:29:16.420Z,42.00
2019-03-11T06:30:16.401Z,41.10
2019-03-11T06:31:16.378Z,42.10
2019-03-11T06:32:16.357Z,44.50
2019-03-11T06:33:16.389Z,42.60
2019-03-11T06:34:16.305Z,40.10
2019-03-11T06:35:16.282Z,39.90
2019-03-11T06:36:16.260Z,40.00
2019-03-11T06:37:16.235Z,40.10
2019-03-11T06:38:16.213Z,38.90
2019-03-11T06:39:16.183Z,39.20
2019-03-11T06:40:16.160Z,38.10
2019-03-11T06:41:16.138Z,38.70
2019-03-11T06:42:16.124Z,38.00
2019-03-11T06:43:16.095Z,39.10
2019-03-11T06:44:16.067Z,38.90
2019-03-11T06:45:16.040Z,36.00
2019-03-11T06:46:16.022Z,37.00
2019-03-11T06:47:16.004Z,35.90
2019-03-11T06:48:15.972Z,35.80
2019-03-11T06:49:15.970Z,36.30
2019-03-11T06:50:15.926Z,35.50
2019-03-11T06:51:15.903Z,34.10
2019-03-11T06:52:15.880Z,34.20
2019-03-11T06:53:15.856Z,35.80
2019-03-11T06:54:15.832Z,33.40
2019-03-11T06:55:15.810Z,33.70
2019-03-11T06:56:15.790Z,32.70
2019-03-11T06:57:15.761Z,32.70
2019-03-11T06:58:15.738Z,33.00
2019-03-11T06:59:15.716Z,36.50
2019-03-11T07:00:15.690Z,37.80
2019-03-11T07:01:15.666Z,37.00
2019-03-11T07:02:15.661Z,36.00
2019-03-11T07:03:15.628Z,35.30
2019-03-11T07:04:15.595Z,33.70
2019-03-11T07:05:20.332Z,33.70
2019-03-11T07:06:15.550Z,33.70
2019-03-11T07:07:15.530Z,32.10
2019-03-11T07:08:15.506Z,31.50
2019-03-11T07:09:15.540Z,31.50
2019-03-11T07:10:15.464Z,32.80
2019-03-11T07:11:15.439Z,31.50
2019-03-11T07:12:15.414Z,29.90
2019-03-11T07:13:15.417Z,30.70
2019-03-11T07:14:15.368Z,30.10
2019-03-11T07:15:15.346Z,29.30
2019-03-11T07:16:15.330Z,30.40
2019-03-11T07:17:15.296Z,31.00
2019-03-11T07:18:15.274Z,30.60
2019-03-11T07:19:15.254Z,30.30
2019-03-11T07:20:15.237Z,29.60
2019-03-11T07:21:15.202Z,29.20
2019-03-11T07:22:15.181Z,29.60
2019-03-11T07:23:15.154Z,30.40
2019-03-11T07:24:15.132Z,32.20
2019-03-11T07:25:15.108Z,30.80
2019-03-11T07:26:15.086Z,31.00
2019-03-11T07:27:15.062Z,29.10
2019-03-11T07:28:15.048Z,30.20
2019-03-11T07:29:15.014Z,29.30
2019-03-11T07:30:14.992Z,32.00
2019-03-11T07:31:14.971Z,30.30
2019-03-11T07:32:14.947Z,23.60
2019-03-11T07:33:14.924Z,24.80
2019-03-11T07:34:14.911Z,25.20
2019-03-11T07:35:14.879Z,23.80
2019-03-11T07:36:14.854Z,25.00
2019-03-11T07:37:14.918Z,25.70
2019-03-11T07:38:14.806Z,23.50
2019-03-11T07:39:14.785Z,23.20
2019-03-11T07:40:14.762Z,23.10
2019-03-11T07:41:14.739Z,23.10
2019-03-11T07:42:14.724Z,23.30
2019-03-11T07:43:14.692Z,23.90
2019-03-11T07:44:14.675Z,24.50
2019-03-11T07:45:14.651Z,25.60
2019-03-11T07:46:14.624Z,25.70
2019-03-11T07:47:14.599Z,24.70
2019-03-11T07:48:14.576Z,25.90
2019-03-11T07:49:14.555Z,23.50
2019-03-11T07:50:14.529Z,23.20
2019-03-11T07:51:14.510Z,24.20
2019-03-11T07:52:14.483Z,24.10
2019-03-11T07:53:14.461Z,24.70
2019-03-11T07:54:14.437Z,24.20
2019-03-11T07:55:14.414Z,25.80
2019-03-11T07:56:14.410Z,25.60
2019-03-11T07:57:14.370Z,24.90
2019-03-11T07:58:14.348Z,24.20
2019-03-11T07:59:14.383Z,23.20
2019-03-11T08:00:14.313Z,24.80
2019-03-11T08:01:14.273Z,24.40
2019-03-11T08:02:14.251Z,25.10
2019-03-11T08:03:14.229Z,24.80
2019-03-11T08:04:14.205Z,25.00
2019-03-11T08:05:14.185Z,25.30
2019-03-11T08:06:18.494Z,25.10
2019-03-11T08:07:14.145Z,24.40
2019-03-11T08:08:14.122Z,24.90
2019-03-11T08:09:14.090Z,23.20
2019-03-11T08:10:14.073Z,23.30
2019-03-11T08:11:14.043Z,23.10
2019-03-11T08:12:14.035Z,22.80
2019-03-11T08:13:13.999Z,22.60
2019-03-11T08:14:13.973Z,22.60
2019-03-11T08:15:13.947Z,23.00
2019-03-11T08:16:13.928Z,22.70
2019-03-11T08:17:13.905Z,22.60
2019-03-11T08:18:13.881Z,22.60
2019-03-11T08:19:13.863Z,22.50
2019-03-11T08:20:13.839Z,23.20
2019-03-11T08:21:13.817Z,22.40
2019-03-11T08:22:13.797Z,22.00
2019-03-11T08:23:13.770Z,22.00
2019-03-11T08:24:13.751Z,22.80
2019-03-11T08:25:13.729Z,22.20
2019-03-11T08:26:13.704Z,22.40
2019-03-11T08:27:13.675Z,22.60
2019-03-11T08:28:13.653Z,22.20
2019-03-11T08:29:13.635Z,23.30
2019-03-11T08:30:13.605Z,22.40
2019-03-11T08:31:13.593Z,22.40
2019-03-11T08:32:13.565Z,22.40
2019-03-11T08:33:13.544Z,21.90
2019-03-11T08:34:13.519Z,22.40
2019-03-11T08:35:13.493Z,22.60
2019-03-11T08:36:13.480Z,22.90
2019-03-11T08:37:13.450Z,22.60
2019-03-11T08:38:13.429Z,22.20
2019-03-11T08:39:13.405Z,21.80
2019-03-11T08:40:13.381Z,21.00
2019-03-11T08:41:13.361Z,20.50
2019-03-11T08:42:13.336Z,20.90
2019-03-11T08:43:13.314Z,20.60
2019-03-11T08:44:13.290Z,21.10
2019-03-11T08:45:13.265Z,21.40
2019-03-11T08:46:13.301Z,20.80
2019-03-11T08:47:13.223Z,20.90
2019-03-11T08:48:13.202Z,20.40
2019-03-11T08:49:13.176Z,20.70
2019-03-11T08:50:13.152Z,21.10
2019-03-11T08:51:13.134Z,19.60
2019-03-11T08:52:13.110Z,20.40
2019-03-11T08:53:13.084Z,20.10
2019-03-11T08:54:13.062Z,20.50
2019-03-11T08:55:13.040Z,20.80
2019-03-11T08:56:13.017Z,21.40
2019-03-11T08:57:12.995Z,19.10
2019-03-11T08:58:13.326Z,19.80
2019-03-11T08:59:12.953Z,20.00
2019-03-11T09:00:12.931Z,19.90
2019-03-11T09:01:12.903Z,19.90
2019-03-11T09:02:12.899Z,20.40
2019-03-11T09:03:12.859Z,19.70
2019-03-11T09:04:12.839Z,19.70
2019-03-11T09:05:12.818Z,19.70
2019-03-11T09:06:12.796Z,19.60
2019-03-11T09:07:12.768Z,19.70
2019-03-11T09:08:12.754Z,20.70
2019-03-11T09:09:12.725Z,20.50
2019-03-11T09:10:12.700Z,20.10
2019-03-11T09:11:12.682Z,21.00
2019-03-11T09:12:12.656Z,20.90
2019-03-11T09:13:12.635Z,20.50
2019-03-11T09:14:12.608Z,19.90
2019-03-11T09:15:12.591Z,20.00
2019-03-11T09:16:12.564Z,20.00
2019-03-11T09:17:12.627Z,19.30
2019-03-11T09:18:12.520Z,19.30
2019-03-11T09:19:12.498Z,19.70
2019-03-11T09:20:12.474Z,19.10
2019-03-11T09:21:12.453Z,19.30
2019-03-11T09:22:12.432Z,18.80
2019-03-11T09:23:12.411Z,19.20
2019-03-11T09:24:19.323Z,19.00
2019-03-11T09:25:12.363Z,19.20
2019-03-11T09:26:12.342Z,17.90
2019-03-11T09:27:12.324Z,18.50
2019-03-11T09:28:12.334Z,19.40
2019-03-11T09:29:12.285Z,19.10
2019-03-11T09:30:12.254Z,18.30
2019-03-11T09:31:12.230Z,19.70
2019-03-11T09:32:12.208Z,18.10
2019-03-11T09:33:12.187Z,19.10
2019-03-11T09:34:12.160Z,18.30
2019-03-11T09:35:12.138Z,18.40
2019-03-11T09:36:12.114Z,18.70
2019-03-11T09:37:12.092Z,18.30
2019-03-11T09:38:12.074Z,19.40
2019-03-11T09:39:12.056Z,18.60
2019-03-11T09:40:12.024Z,19.00
2019-03-11T09:41:12.001Z,17.40
2019-03-11T09:42:11.980Z,19.40
2019-03-11T09:43:11.965Z,21.00
2019-03-11T09:44:11.938Z,19.20
2019-03-11T09:45:11.913Z,18.40
2019-03-11T09:46:11.888Z,19.50
2019-03-11T09:47:11.866Z,18.30
2019-03-11T09:48:11.844Z,19.00
2019-03-11T09:49:11.829Z,18.20
2019-03-11T09:50:11.801Z,18.50
2019-03-11T09:51:11.774Z,17.80
2019-03-11T09:52:11.751Z,17.20
2019-03-11T09:53:11.728Z,17.60
2019-03-11T09:54:11.709Z,17.90
2019-03-11T09:55:11.691Z,17.40
2019-03-11T09:56:11.664Z,18.20
2019-03-11T09:57:11.637Z,17.50
2019-03-11T09:58:11.614Z,18.50
2019-03-11T09:59:11.594Z,17.70
2019-03-11T10:00:11.568Z,16.80
2019-03-11T10:01:11.548Z,16.60
2019-03-11T10:02:12.537Z,15.80
2019-03-11T10:03:11.506Z,16.70
2019-03-11T10:04:11.484Z,16.00
2019-03-11T10:05:11.459Z,15.90
2019-03-11T10:06:11.444Z,18.30
2019-03-11T10:07:11.414Z,17.00
2019-03-11T10:08:11.388Z,16.40
2019-03-11T10:09:11.366Z,16.40
2019-03-11T10:10:11.344Z,16.00
2019-03-11T10:11:11.324Z,16.50
2019-03-11T10:12:11.299Z,16.60
2019-03-11T10:13:11.275Z,15.50
2019-03-11T10:14:11.257Z,16.50
2019-03-11T10:15:11.228Z,14.50
2019-03-11T10:16:11.206Z,17.00
2019-03-11T10:17:11.189Z,16.40
2019-03-11T10:18:11.167Z,14.80
2019-03-11T10:19:11.148Z,14.70
2019-03-11T10:20:11.127Z,14.50
2019-03-11T10:21:11.100Z,14.60
2019-03-11T10:22:11.074Z,15.80
2019-03-11T10:23:11.063Z,15.90
2019-03-11T10:24:11.034Z,15.60
2019-03-11T10:25:11.009Z,15.20
2019-03-11T10:26:10.985Z,14.80
2019-03-11T10:27:10.990Z,14.10
2019-03-11T10:28:10.947Z,14.00
2019-03-11T10:29:10.922Z,13.50
2019-03-11T10:30:10.899Z,13.90
2019-03-11T10:31:10.876Z,14.20
2019-03-11T10:32:10.859Z,14.80
2019-03-11T10:33:10.831Z,14.20
2019-03-11T10:34:10.811Z,14.80
2019-03-11T10:35:30.274Z,14.30
2019-03-11T10:36:10.763Z,14.60
2019-03-11T10:37:10.745Z,14.50
2019-03-11T10:38:10.725Z,14.60
2019-03-11T10:39:10.703Z,15.10
2019-03-11T10:40:10.678Z,14.90
2019-03-11T10:41:10.658Z,15.00
2019-03-11T10:42:10.642Z,14.50
2019-03-11T10:43:10.610Z,14.10
2019-03-11T10:44:10.591Z,14.80
2019-03-11T10:45:10.566Z,15.00
2019-03-11T10:46:10.548Z,15.10
2019-03-11T10:47:10.523Z,14.80
2019-03-11T10:48:10.509Z,14.60
2019-03-11T10:49:10.487Z,14.40
2019-03-11T10:50:10.453Z,13.90
2019-03-11T10:51:10.509Z,14.70
2019-03-11T10:52:10.409Z,14.50
2019-03-11T10:53:10.387Z,15.20
2019-03-11T10:54:10.373Z,15.00
2019-03-11T10:55:10.347Z,14.60
2019-03-11T10:56:10.324Z,15.30
2019-03-11T10:57:10.319Z,14.80
2019-03-11T10:58:10.278Z,14.90
2019-03-11T10:59:10.261Z,14.30
2019-03-11T11:00:10.233Z,14.90
2019-03-11T11:01:10.216Z,15.20
2019-03-11T11:02:10.201Z,15.50
2019-03-11T11:03:10.177Z,14.80
2019-03-11T11:04:10.147Z,14.60
2019-03-11T11:05:10.174Z,15.60
2019-03-11T11:06:10.153Z,15.30
2019-03-11T11:07:10.081Z,14.60
2019-03-11T11:08:10.057Z,15.70
2019-03-11T11:09:10.037Z,16.10
2019-03-11T11:10:10.014Z,15.20
2019-03-11T11:11:09.995Z,15.40
2019-03-11T11:12:09.978Z,14.70
2019-03-11T11:13:09.950Z,16.10
2019-03-11T11:14:09.928Z,15.70
2019-03-11T11:15:09.905Z,14.20
2019-03-11T11:16:09.884Z,15.50
2019-03-11T11:17:09.863Z,13.70
2019-03-11T11:18:09.839Z,14.40
2019-03-11T11:19:09.814Z,14.40
2019-03-11T11:20:09.802Z,14.20
2019-03-11T11:21:09.774Z,15.20
2019-03-11T11:22:09.752Z,14.10
2019-03-11T11:23:09.733Z,14.40
2019-03-11T11:24:09.708Z,14.40
2019-03-11T11:25:09.686Z,14.40
2019-03-11T11:26:09.664Z,14.60
2019-03-11T11:27:09.642Z,14.60
2019-03-11T11:28:09.618Z,14.50
2019-03-11T11:29:09.601Z,15.20
2019-03-11T11:30:09.574Z,15.60
2019-03-11T11:31:09.556Z,14.70
2019-03-11T11:32:09.532Z,14.80
2019-03-11T11:33:09.510Z,15.30
2019-03-11T11:34:09.488Z,15.00
2019-03-11T11:35:09.466Z,15.00
2019-03-11T11:36:09.445Z,15.10
2019-03-11T11:37:09.418Z,15.60
2019-03-11T11:38:09.398Z,16.10
2019-03-11T11:39:09.375Z,16.10
2019-03-11T11:40:09.352Z,17.10
2019-03-11T11:41:09.332Z,18.10
2019-03-11T11:42:09.306Z,17.50
2019-03-11T11:43:09.285Z,16.20
2019-03-11T11:44:09.260Z,16.50
2019-03-11T11:45:09.240Z,16.80
2019-03-11T11:46:09.219Z,17.10
2019-03-11T11:47:09.194Z,17.10
2019-03-11T11:48:09.172Z,17.80
2019-03-11T11:49:09.155Z,19.20
2019-03-11T11:50:09.128Z,19.50
2019-03-11T11:51:09.103Z,22.40
2019-03-11T11:52:09.079Z,22.00
2019-03-11T11:53:09.060Z,24.70
2019-03-11T11:54:09.040Z,23.70
2019-03-11T11:55:09.016Z,24.80
2019-03-11T11:56:08.996Z,24.30
2019-03-11T11:57:08.970Z,25.50
2019-03-11T11:58:08.952Z,26.30
2019-03-11T11:59:08.930Z,23.80
2019-03-11T12:00:08.900Z,24.00
2019-03-11T12:01:08.878Z,24.80
2019-03-11T12:02:08.854Z,24.80
2019-03-11T12:03:08.831Z,24.30
2019-03-11T12:04:08.817Z,23.80
2019-03-11T12:05:08.785Z,25.30
2019-03-11T12:06:08.764Z,26.30
2019-03-11T12:07:08.741Z,24.70
2019-03-11T12:08:08.719Z,25.80
2019-03-11T12:09:08.697Z,27.30
2019-03-11T12:10:08.672Z,28.40
2019-03-11T12:11:08.648Z,37.80
2019-03-11T12:12:08.628Z,38.90
2019-03-11T12:13:08.607Z,38.30
2019-03-11T12:14:08.593Z,41.70
2019-03-11T12:15:08.563Z,40.50
2019-03-11T12:16:08.535Z,41.10
2019-03-11T12:17:08.517Z,38.80
2019-03-11T12:18:08.492Z,39.10
2019-03-11T12:19:08.472Z,40.00
2019-03-11T12:20:08.443Z,37.30
2019-03-11T12:21:08.422Z,38.30
2019-03-11T12:22:08.393Z,38.50
2019-03-11T12:23:08.379Z,37.80
2019-03-11T12:24:08.361Z,38.20
2019-03-11T12:25:08.334Z,35.60
2019-03-11T12:26:08.317Z,35.50
2019-03-11T12:27:08.288Z,36.60
2019-03-11T12:28:08.257Z,35.40
2019-03-11T12:29:08.235Z,35.60
2019-03-11T12:30:08.227Z,36.40
2019-03-11T12:31:08.194Z,37.00
2019-03-11T12:32:08.167Z,38.00
2019-03-11T12:33:08.147Z,37.80
2019-03-11T12:34:08.121Z,35.00
2019-03-11T12:35:08.099Z,37.20
2019-03-11T12:36:08.077Z,35.80
2019-03-11T12:37:08.057Z,34.70
2019-03-11T12:38:08.036Z,35.10
2019-03-11T12:39:08.006Z,36.20
2019-03-11T12:40:07.985Z,41.90
2019-03-11T12:41:07.969Z,40.60
2019-03-11T12:42:07.939Z,39.70
2019-03-11T12:43:07.916Z,42.80
2019-03-11T12:44:07.892Z,41.80
2019-03-11T12:45:07.878Z,41.80
2019-03-11T12:46:07.850Z,38.60
2019-03-11T12:47:07.823Z,39.30
2019-03-11T12:48:07.833Z,41.60
2019-03-11T12:49:07.779Z,40.70
2019-03-11T12:50:07.764Z,40.00
2019-03-11T12:51:07.732Z,43.10
2019-03-11T12:52:07.709Z,42.80
2019-03-11T12:53:07.687Z,43.60